Time;durP1;ratioP1;P1;durP2;ratioP2;P2;SDS_P1;SDS_P2;PMS_P1;PMS_P2;Temp;Humidity;BMP_temperature;BMP_pressure;BME280_temperature;BME280_humidity;BME280_pressure;Samples;Min_cycle;Max_cycle;Signal;HPM_P1;HPM_P2
2022/04/11 00:00:43;;;;;;;5.78;3.08;;;2.40;99.90;;;;;;5077292;28;20424;-58
2022/04/11 00:03:09;;;;;;;5.40;2.58;;;2.40;99.90;;;;;;5075379;28;20331;-58
2022/04/11 00:05:36;;;;;;;6.88;3.10;;;2.40;99.90;;;;;;5080188;28;20044;-58
2022/04/11 00:08:02;;;;;;;5.60;2.65;;;2.30;99.90;;;;;;5080302;28;20521;-58
2022/04/11 00:10:28;;;;;;;7.43;2.65;;;2.30;99.90;;;;;;5083041;28;20565;-58
2022/04/11 00:13:08;;;;;;;6.28;2.72;;;2.30;99.90;;;;;;5081296;28;20538;-67
2022/04/11 00:15:38;;;;;;;5.82;2.72;;;2.30;99.90;;;;;;5091193;28;20129;-67
2022/04/11 00:18:05;;;;;;;4.95;2.75;;;2.20;99.90;;;;;;5057558;28;20635;-67
2022/04/11 00:20:32;;;;;;;7.40;3.17;;;2.20;99.90;;;;;;5085600;28;20493;-59
2022/04/11 00:22:58;;;;;;;6.10;2.70;;;2.20;99.90;;;;;;5081781;28;20051;-64
2022/04/11 00:25:24;;;;;;;5.38;2.95;;;2.10;99.90;;;;;;5084137;28;20048;-67
2022/04/11 00:27:52;;;;;;;4.82;2.72;;;2.20;99.90;;;;;;5083118;28;20086;-59
2022/04/11 00:30:19;;;;;;;7.43;3.55;;;2.10;99.90;;;;;;5092803;28;20084;-58
2022/04/11 00:32:45;;;;;;;4.55;3.00;;;2.10;99.90;;;;;;5075706;28;20137;-67
2022/04/11 00:35:12;;;;;;;6.22;3.63;;;2.00;99.90;;;;;;5069641;28;20072;-67
2022/04/11 00:37:39;;;;;;;6.28;3.33;;;2.00;99.90;;;;;;5078277;28;20048;-67
2022/04/11 00:40:07;;;;;;;6.30;3.08;;;2.00;99.90;;;;;;5070597;28;20084;-58
2022/04/11 00:42:34;;;;;;;5.10;3.13;;;2.00;99.90;;;;;;5056045;28;20052;-68
2022/04/11 00:45:01;;;;;;;5.75;3.60;;;2.00;99.90;;;;;;5053826;28;20103;-67
2022/04/11 00:47:28;;;;;;;6.95;3.72;;;2.00;99.90;;;;;;5079169;28;20052;-59
2022/04/11 00:49:58;;;;;;;7.13;3.30;;;2.00;99.90;;;;;;5079642;28;20426;-59
2022/04/11 00:52:25;;;;;;;7.30;4.00;;;1.90;99.90;;;;;;5084407;28;20048;-59
2022/04/11 00:54:51;;;;;;;6.32;3.55;;;1.90;99.90;;;;;;5076822;28;20570;-59
2022/04/11 00:57:19;;;;;;;8.38;4.07;;;1.90;99.90;;;;;;5097517;28;20402;-59
2022/04/11 00:59:46;;;;;;;4.30;3.60;;;1.80;99.90;;;;;;5087725;28;20090;-59
2022/04/11 01:02:12;;;;;;;5.47;4.05;;;1.80;99.90;;;;;;5080652;28;20571;-59
2022/04/11 01:04:41;;;;;;;8.25;4.05;;;1.80;99.90;;;;;;5080785;28;20055;-58
2022/04/11 01:07:10;;;;;;;7.38;4.10;;;1.80;99.90;;;;;;5082709;28;20521;-58
2022/04/11 01:09:36;;;;;;;7.00;3.88;;;1.80;99.90;;;;;;5081340;28;20129;-67
2022/04/11 01:12:03;;;;;;;5.53;4.03;;;1.80;99.90;;;;;;5097560;28;20075;-67
2022/04/11 01:14:29;;;;;;;6.25;3.72;;;1.80;99.90;;;;;;5082570;28;20055;-68
2022/04/11 01:16:57;;;;;;;6.57;3.85;;;1.70;99.90;;;;;;5050341;28;20058;-67
2022/04/11 01:19:23;;;;;;;5.38;3.35;;;1.70;99.90;;;;;;5082198;28;20428;-59
2022/04/11 01:21:50;;;;;;;6.55;3.55;;;1.70;99.90;;;;;;5073346;28;20036;-59
2022/04/11 01:24:20;;;;;;;8.82;3.92;;;1.70;99.90;;;;;;5078210;28;20044;-59
2022/04/11 01:26:47;;;;;;;5.35;3.58;;;1.70;99.90;;;;;;5043714;28;20048;-59
2022/04/11 01:29:16;;;;;;;9.30;4.32;;;1.60;99.90;;;;;;5076530;28;20054;-59
2022/04/11 01:31:42;;;;;;;5.75;3.63;;;1.70;99.90;;;;;;5060066;28;20211;-59
2022/04/11 01:34:09;;;;;;;6.38;4.10;;;1.60;99.90;;;;;;5081454;28;20062;-60
2022/04/11 01:36:35;;;;;;;6.25;3.55;;;1.70;99.90;;;;;;5069819;28;20108;-60
2022/04/11 01:39:04;;;;;;;5.78;3.58;;;1.60;99.90;;;;;;5081045;28;20052;-59
2022/04/11 01:41:30;;;;;;;6.75;3.58;;;1.60;99.90;;;;;;5080604;28;20566;-67
2022/04/11 01:43:56;;;;;;;6.22;3.22;;;1.60;99.90;;;;;;5049801;28;20789;-67
2022/04/11 01:46:22;;;;;;;7.40;3.50;;;1.60;99.90;;;;;;5077189;28;20116;-67
2022/04/11 01:48:51;;;;;;;5.82;3.10;;;1.60;99.90;;;;;;5064360;28;20059;-68
2022/04/11 01:51:17;;;;;;;5.30;3.05;;;1.50;99.90;;;;;;5084134;28;20268;-67
2022/04/11 01:53:43;;;;;;;5.22;3.17;;;1.50;99.90;;;;;;5085707;28;20044;-68
2022/04/11 01:56:10;;;;;;;5.57;3.30;;;1.50;99.90;;;;;;5090484;28;20054;-67
2022/04/11 01:58:36;;;;;;;9.10;3.58;;;1.40;99.90;;;;;;5072793;28;20045;-67
2022/04/11 02:01:02;;;;;;;4.55;3.00;;;1.50;99.90;;;;;;5047769;28;20048;-68
2022/04/11 02:03:32;;;;;;;6.57;2.90;;;1.50;99.90;;;;;;5078678;28;20052;-68
2022/04/11 02:05:58;;;;;;;7.47;3.65;;;1.50;99.90;;;;;;5080329;28;20082;-59
2022/04/11 02:08:25;;;;;;;5.45;3.10;;;1.50;99.90;;;;;;5072805;28;20567;-58
2022/04/11 02:10:55;;;;;;;5.20;3.22;;;1.50;99.90;;;;;;5084476;28;20079;-59
2022/04/11 02:13:21;;;;;;;4.53;3.03;;;1.50;99.90;;;;;;5096640;27;20221;-59
2022/04/11 02:15:48;;;;;;;5.22;3.65;;;1.40;99.90;;;;;;5079362;28;20051;-67
2022/04/11 02:18:14;;;;;;;7.20;3.53;;;1.40;99.90;;;;;;5081367;28;20407;-67
2022/04/11 02:20:40;;;;;;;5.40;3.30;;;1.40;99.90;;;;;;5072806;28;20450;-67
2022/04/11 02:23:09;;;;;;;4.15;3.00;;;1.40;99.90;;;;;;5066774;28;20106;-58
2022/04/11 02:25:37;;;;;;;5.78;3.08;;;1.40;99.90;;;;;;5087612;28;20059;-60
2022/04/11 02:28:04;;;;;;;6.57;3.42;;;1.50;99.90;;;;;;5069748;28;20048;-60
2022/04/11 02:30:30;;;;;;;6.95;3.38;;;1.50;99.90;;;;;;5090583;28;20067;-67
2022/04/11 02:32:56;;;;;;;5.50;3.10;;;1.40;99.90;;;;;;5074927;28;20060;-66
2022/04/11 02:35:24;;;;;;;6.53;3.80;;;1.40;99.90;;;;;;5070396;28;20060;-67
2022/04/11 02:37:51;;;;;;;5.63;3.38;;;1.50;99.90;;;;;;5034779;28;20399;-66
2022/04/11 02:40:17;;;;;;;6.00;3.38;;;1.50;99.90;;;;;;5099620;27;20048;-66
2022/04/11 02:42:59;;;;;;;5.57;3.20;;;1.50;99.90;;;;;;5100033;28;20091;-67
2022/04/11 02:45:27;;;;;;;6.82;3.70;;;1.50;99.90;;;;;;5035833;28;20482;-67
2022/04/11 02:47:53;;;;;;;5.68;3.25;;;1.50;99.90;;;;;;5078015;28;20044;-67
2022/04/11 02:50:19;;;;;;;5.30;3.03;;;1.50;99.90;;;;;;5062728;28;20060;-67
2022/04/11 02:53:05;;;;;;;5.53;3.25;;;1.50;99.90;;;;;;5078438;28;20387;-67
2022/04/11 02:55:32;;;;;;;6.32;3.47;;;1.40;99.90;;;;;;5069525;28;20057;-67
2022/04/11 02:57:58;;;;;;;6.07;3.50;;;1.40;99.90;;;;;;5067739;28;20596;-67
2022/04/11 03:00:25;;;;;;;4.95;3.20;;;1.40;99.90;;;;;;5082433;28;20054;-68
2022/04/11 03:02:56;;;;;;;4.97;3.08;;;1.40;99.90;;;;;;5065769;28;20115;-68
2022/04/11 03:05:24;;;;;;;6.88;3.53;;;1.40;99.90;;;;;;5073764;28;20052;-68
2022/04/11 03:07:52;;;;;;;5.75;2.63;;;1.30;99.90;;;;;;5055047;28;20063;-60
2022/04/11 03:10:19;;;;;;;4.70;2.83;;;1.30;99.90;;;;;;5062412;28;20116;-60
2022/04/11 03:12:47;;;;;;;6.32;2.78;;;1.30;99.90;;;;;;5044913;28;20048;-67
2022/04/11 03:15:14;;;;;;;6.65;2.90;;;1.30;99.90;;;;;;5082355;28;20059;-67
2022/04/11 03:17:41;;;;;;;5.13;2.88;;;1.30;99.90;;;;;;5093501;28;20119;-68
2022/04/11 03:20:10;;;;;;;5.50;3.05;;;1.30;99.90;;;;;;5076796;28;20515;-67
2022/04/11 03:22:39;;;;;;;4.43;2.78;;;1.20;99.90;;;;;;5056212;28;20056;-67
2022/04/11 03:25:09;;;;;;;5.00;3.10;;;1.20;99.90;;;;;;5066649;28;20078;-68
2022/04/11 03:27:38;;;;;;;5.47;2.90;;;1.30;99.90;;;;;;5066120;28;20051;-67
2022/04/11 03:30:05;;;;;;;6.30;3.38;;;1.20;99.90;;;;;;5066265;28;20495;-60
2022/04/11 03:32:34;;;;;;;5.47;3.13;;;1.20;99.90;;;;;;5078112;28;20052;-60
2022/04/11 03:35:00;;;;;;;5.85;2.80;;;1.20;99.90;;;;;;5069345;28;21266;-60
2022/04/11 03:37:26;;;;;;;4.38;2.90;;;1.10;99.90;;;;;;5106506;27;20037;-60
2022/04/11 03:40:00;;;;;;;6.55;2.90;;;1.20;99.90;;;;;;5071633;28;20045;-60
2022/04/11 03:42:27;;;;;;;6.63;3.03;;;1.20;99.90;;;;;;5045987;28;20413;-60
2022/04/11 03:44:53;;;;;;;4.88;2.55;;;1.20;99.90;;;;;;5043052;28;20059;-60
2022/04/11 03:47:21;;;;;;;7.13;2.70;;;1.20;99.90;;;;;;5065292;28;20056;-67
2022/04/11 03:49:47;;;;;;;13.45;3.55;;;1.20;99.90;;;;;;5074136;28;20505;-67
2022/04/11 03:52:20;;;;;;;5.88;3.15;;;1.20;99.90;;;;;;5047830;28;20049;-61
2022/04/11 03:54:47;;;;;;;4.68;2.95;;;1.20;99.90;;;;;;5062038;28;20671;-58
2022/04/11 03:57:16;;;;;;;5.15;2.83;;;1.30;99.90;;;;;;5069559;28;20132;-61
2022/04/11 03:59:42;;;;;;;5.75;3.10;;;1.30;99.90;;;;;;5070883;28;20508;-60
2022/04/11 04:02:10;;;;;;;4.50;2.63;;;1.30;99.90;;;;;;5073821;28;20044;-60
2022/04/11 04:04:37;;;;;;;5.28;2.75;;;1.40;99.90;;;;;;5058528;28;20119;-61
2022/04/11 04:07:03;;;;;;;5.35;2.75;;;1.40;99.90;;;;;;5064349;28;20052;-60
2022/04/11 04:09:29;;;;;;;5.28;3.08;;;1.50;99.90;;;;;;5044542;28;20051;-67
2022/04/11 04:11:56;;;;;;;6.10;3.25;;;1.50;99.90;;;;;;5063634;28;20044;-67
2022/04/11 04:14:30;;;;;;;5.78;3.25;;;1.60;99.90;;;;;;5079279;28;20057;-67
2022/04/11 04:16:56;;;;;;;4.45;2.80;;;1.60;99.90;;;;;;5083123;28;20181;-67
2022/04/11 04:19:38;;;;;;;4.28;2.90;;;1.60;99.90;;;;;;5098472;28;20507;-68
2022/04/11 04:22:10;;;;;;;4.45;2.80;;;1.60;99.90;;;;;;5044421;28;20060;-60
2022/04/11 04:24:37;;;;;;;6.53;3.15;;;1.70;99.90;;;;;;5106568;28;20076;-61
2022/04/11 04:27:06;;;;;;;7.57;3.40;;;1.70;99.90;;;;;;5043400;28;20040;-61
2022/04/11 04:29:35;;;;;;;5.63;3.08;;;1.70;99.90;;;;;;5075682;28;20830;-61
2022/04/11 04:32:01;;;;;;;6.35;3.63;;;1.80;99.90;;;;;;5086176;28;20103;-61
2022/04/11 04:34:31;;;;;;;3.55;2.83;;;1.80;99.90;;;;;;5058337;28;20459;-60
2022/04/11 04:36:58;;;;;;;6.18;2.78;;;1.80;99.90;;;;;;5062023;28;20044;-61
2022/04/11 04:39:25;;;;;;;5.03;3.05;;;1.80;99.90;;;;;;5077718;28;20133;-61
2022/04/11 04:41:53;;;;;;;5.28;2.97;;;1.90;99.90;;;;;;5056625;28;20048;-61
2022/04/11 04:44:20;;;;;;;4.97;2.97;;;1.90;99.90;;;;;;5094941;28;20057;-61
2022/04/11 04:46:52;;;;;;;4.97;2.90;;;2.00;99.90;;;;;;5065662;28;20060;-60
2022/04/11 04:49:23;;;;;;;5.45;3.03;;;2.00;99.90;;;;;;5088606;28;20043;-61
2022/04/11 04:51:49;;;;;;;5.75;3.08;;;2.00;99.90;;;;;;5081981;28;20040;-61
2022/04/11 04:54:15;;;;;;;5.13;3.17;;;2.10;99.90;;;;;;5047869;28;20174;-61
2022/04/11 04:56:41;;;;;;;6.10;3.05;;;2.10;99.90;;;;;;5046771;28;20051;-61
2022/04/11 04:59:19;;;;;;;6.25;3.10;;;2.10;99.90;;;;;;5079660;28;20838;-61
2022/04/11 05:01:45;;;;;;;6.25;2.90;;;2.10;99.90;;;;;;5082438;28;20069;-61
2022/04/11 05:04:12;;;;;;;6.28;2.85;;;2.20;99.90;;;;;;5078939;28;20036;-58
2022/04/11 05:06:40;;;;;;;7.07;3.65;;;2.20;99.90;;;;;;5080930;28;20564;-60
2022/04/11 05:09:09;;;;;;;5.55;3.63;;;2.30;99.90;;;;;;5064429;28;20396;-59
2022/04/11 05:11:36;;;;;;;6.40;3.13;;;2.30;99.90;;;;;;5080774;28;20079;-59
2022/04/11 05:14:02;;;;;;;5.55;3.38;;;2.20;99.90;;;;;;5081188;28;20077;-59
2022/04/11 05:16:32;;;;;;;6.15;3.17;;;2.30;99.90;;;;;;5077153;28;20051;-58
2022/04/11 05:18:58;;;;;;;4.75;3.00;;;2.30;99.90;;;;;;5071164;28;20291;-60
2022/04/11 05:21:25;;;;;;;5.32;2.90;;;2.30;99.90;;;;;;5083924;28;20584;-62
2022/04/11 05:23:51;;;;;;;6.88;3.88;;;2.30;99.90;;;;;;5064480;28;20138;-59
2022/04/11 05:26:18;;;;;;;8.20;3.10;;;2.40;99.90;;;;;;5080510;28;20175;-59
2022/04/11 05:28:46;;;;;;;5.93;3.22;;;2.40;99.90;;;;;;5080471;28;20048;-59
2022/04/11 05:31:12;;;;;;;6.25;3.78;;;2.40;99.90;;;;;;5077092;28;20052;-58
2022/04/11 05:33:41;;;;;;;7.53;4.07;;;2.50;99.90;;;;;;5051865;28;20215;-58
2022/04/11 05:36:11;;;;;;;7.35;4.00;;;2.50;99.90;;;;;;5073175;28;20693;-58
2022/04/11 05:38:38;;;;;;;6.22;3.80;;;2.60;99.90;;;;;;5079058;28;20411;-58
2022/04/11 05:41:05;;;;;;;4.07;2.78;;;2.60;99.90;;;;;;5078162;28;20648;-58
2022/04/11 05:43:51;;;;;;;5.40;2.97;;;2.70;99.90;;;;;;5037227;28;20366;-57
2022/04/11 05:46:21;;;;;;;4.63;3.25;;;2.70;99.90;;;;;;5081080;28;20084;-58
2022/04/11 05:48:56;;;;;;;5.10;3.40;;;2.70;99.90;;;;;;5063964;28;20127;-58
2022/04/11 05:51:22;;;;;;;5.75;3.38;;;2.70;99.90;;;;;;5063385;28;20095;-57
2022/04/11 05:53:49;;;;;;;6.70;3.30;;;2.80;99.90;;;;;;5077600;28;20052;-59
2022/04/11 05:56:15;;;;;;;17.83;12.93;;;2.80;99.90;;;;;;5076393;28;20486;-58
2022/04/11 05:58:41;;;;;;;10.40;5.90;;;3.10;99.90;;;;;;5080862;28;20620;-56
2022/04/11 06:01:08;;;;;;;9.10;4.25;;;3.20;99.90;;;;;;5075460;28;20051;-54
2022/04/11 06:03:37;;;;;;;5.30;3.20;;;3.30;99.90;;;;;;5077366;28;20051;-62
2022/04/11 06:06:05;;;;;;;7.03;3.70;;;3.30;99.90;;;;;;5085342;28;20081;-60
2022/04/11 06:08:32;;;;;;;8.57;4.45;;;3.40;99.90;;;;;;5056775;28;20743;-62
2022/04/11 06:10:58;;;;;;;9.10;4.10;;;3.50;99.90;;;;;;5087676;28;20040;-59
2022/04/11 06:13:25;;;;;;;8.32;4.93;;;3.90;99.90;;;;;;5080080;28;20504;-58
2022/04/11 06:15:55;;;;;;;8.07;3.95;;;4.20;99.90;;;;;;5047330;28;20044;-58
2022/04/11 06:18:22;;;;;;;7.18;3.60;;;4.40;99.90;;;;;;5077401;28;20067;-58
2022/04/11 06:20:49;;;;;;;6.68;3.83;;;4.50;99.90;;;;;;5057937;28;20052;-58
2022/04/11 06:23:16;;;;;;;38.00;28.25;;;4.30;99.90;;;;;;5104166;27;20109;-57
2022/04/11 06:25:42;;;;;;;29.17;21.45;;;4.40;99.90;;;;;;5060609;28;20458;-56
2022/04/11 06:28:08;;;;;;;8.02;4.40;;;4.40;99.90;;;;;;5058531;28;20093;-57
2022/04/11 06:30:35;;;;;;;14.60;9.32;;;4.40;99.90;;;;;;5070964;28;20079;-57
2022/04/11 06:33:01;;;;;;;16.40;12.43;;;4.60;99.90;;;;;;5038462;28;20381;-57
2022/04/11 06:35:28;;;;;;;10.32;6.57;;;4.60;99.90;;;;;;5069271;28;20794;-57
2022/04/11 06:37:54;;;;;;;6.38;4.10;;;4.70;99.90;;;;;;5081817;28;20052;-57
2022/04/11 06:40:21;;;;;;;10.40;6.35;;;4.70;99.90;;;;;;5028946;28;20128;-57
2022/04/11 06:42:48;;;;;;;8.35;5.38;;;4.70;99.90;;;;;;5076801;28;20052;-58
2022/04/11 06:45:33;;;;;;;9.00;4.65;;;4.80;99.90;;;;;;5064437;28;20502;-58
2022/04/11 06:48:04;;;;;;;7.25;5.07;;;4.80;99.90;;;;;;5070264;28;20604;-58
2022/04/11 06:50:30;;;;;;;7.78;4.40;;;4.90;99.90;;;;;;5079130;28;20052;-58
2022/04/11 06:52:56;;;;;;;7.72;4.53;;;5.00;99.90;;;;;;5074284;28;20050;-58
2022/04/11 06:55:22;;;;;;;9.15;5.47;;;5.00;99.90;;;;;;5071943;28;20456;-59
2022/04/11 06:57:49;;;;;;;11.68;6.20;;;5.00;99.90;;;;;;5078900;28;20066;-58
2022/04/11 07:00:15;;;;;;;12.30;4.72;;;5.10;99.90;;;;;;5059399;28;20079;-58
2022/04/11 07:02:42;;;;;;;18.50;11.27;;;5.00;99.90;;;;;;5058407;28;20455;-60
2022/04/11 07:05:08;;;;;;;34.97;24.67;;;5.10;99.90;;;;;;5077207;28;20062;-59
2022/04/11 07:07:38;;;;;;;51.40;39.15;;;5.10;99.90;;;;;;5044342;28;20048;-58
2022/04/11 07:10:05;;;;;;;15.80;12.57;;;5.10;99.90;;;;;;5051803;28;20401;-58
2022/04/11 07:12:31;;;;;;;10.63;5.85;;;5.20;99.90;;;;;;5077689;28;20527;-58
2022/04/11 07:15:02;;;;;;;13.10;7.80;;;5.20;99.90;;;;;;5077126;28;20079;-57
2022/04/11 07:17:28;;;;;;;10.15;7.07;;;5.20;99.90;;;;;;5076648;28;20834;-51
2022/04/11 07:19:54;;;;;;;17.67;12.48;;;5.20;99.90;;;;;;5076661;28;20112;-54
2022/04/11 07:22:21;;;;;;;11.82;8.50;;;5.30;99.90;;;;;;5076067;28;20383;-52
2022/04/11 07:24:48;;;;;;;9.38;5.60;;;5.40;99.90;;;;;;5076788;28;20044;-53
2022/04/11 07:27:14;;;;;;;11.40;5.57;;;5.50;99.90;;;;;;5076998;28;20048;-58
2022/04/11 07:29:40;;;;;;;7.93;5.80;;;5.60;99.90;;;;;;5077515;28;20093;-58
2022/04/11 07:32:07;;;;;;;10.37;5.47;;;5.70;99.90;;;;;;5074762;28;20047;-58
2022/04/11 07:34:33;;;;;;;11.30;5.53;;;5.70;99.90;;;;;;5071188;28;20113;-57
2022/04/11 07:37:00;;;;;;;7.53;5.03;;;5.70;99.90;;;;;;5073892;28;20051;-56
2022/04/11 07:39:29;;;;;;;6.03;4.57;;;5.80;99.90;;;;;;5061549;28;20569;-65
2022/04/11 07:41:55;;;;;;;9.32;5.30;;;5.80;99.90;;;;;;5068852;28;20041;-65
2022/04/11 07:44:22;;;;;;;8.20;5.05;;;5.90;99.90;;;;;;5070025;28;20293;-65
2022/04/11 07:46:48;;;;;;;7.60;5.07;;;5.90;99.90;;;;;;5071842;28;20589;-65
2022/04/11 07:49:14;;;;;;;7.80;5.22;;;6.00;99.90;;;;;;5054898;28;21657;-65
2022/04/11 07:51:40;;;;;;;7.30;5.03;;;6.10;99.90;;;;;;5073626;28;20335;-63
2022/04/11 07:54:07;;;;;;;10.13;4.93;;;6.10;99.90;;;;;;5060694;28;20483;-59
2022/04/11 07:56:33;;;;;;;9.48;5.07;;;6.20;99.90;;;;;;5059383;28;20046;-61
2022/04/11 07:58:59;;;;;;;9.40;5.78;;;6.30;99.90;;;;;;5076189;28;20499;-56
2022/04/11 08:01:25;;;;;;;8.20;5.65;;;6.40;99.90;;;;;;5072602;28;20072;-61
2022/04/11 08:03:51;;;;;;;8.23;6.43;;;6.50;99.90;;;;;;5059032;28;20055;-61
2022/04/11 08:06:17;;;;;;;6.57;5.35;;;6.60;99.90;;;;;;5071801;28;20158;-61
2022/04/11 08:08:47;;;;;;;10.15;6.07;;;6.70;99.90;;;;;;5077129;28;20048;-62
2022/04/11 08:11:15;;;;;;;11.45;5.90;;;6.90;99.90;;;;;;5073120;28;20381;-60
2022/04/11 08:13:42;;;;;;;9.25;6.20;;;6.90;99.90;;;;;;5076448;28;20123;-61
2022/04/11 08:16:09;;;;;;;8.70;5.72;;;7.10;99.90;;;;;;5078073;28;20089;-66
2022/04/11 08:18:36;;;;;;;8.75;6.63;;;7.30;99.90;;;;;;5078195;28;20825;-68
2022/04/11 08:21:04;;;;;;;7.05;5.28;;;7.40;99.90;;;;;;5076262;28;20040;-64
2022/04/11 08:23:31;;;;;;;7.80;5.38;;;7.60;99.90;;;;;;5072079;28;20519;-65
2022/04/11 08:25:57;;;;;;;12.05;5.95;;;7.80;99.90;;;;;;5077543;28;20668;-65
2022/04/11 08:28:24;;;;;;;9.82;5.53;;;8.00;99.90;;;;;;5076608;28;20060;-69
2022/04/11 08:30:50;;;;;;;7.25;4.93;;;8.20;99.90;;;;;;5080105;28;20363;-65
2022/04/11 08:33:17;;;;;;;8.95;4.88;;;8.40;99.90;;;;;;5077700;28;20102;-55
2022/04/11 08:35:43;;;;;;;8.95;5.15;;;8.70;99.90;;;;;;5057243;28;20091;-53
2022/04/11 08:38:09;;;;;;;9.05;5.50;;;8.80;99.90;;;;;;5086881;28;20123;-56
2022/04/11 08:40:35;;;;;;;6.85;4.60;;;9.00;99.90;;;;;;5083606;28;20075;-55
2022/04/11 08:43:02;;;;;;;8.80;5.40;;;9.20;99.90;;;;;;5079483;28;20663;-56
2022/04/11 08:45:29;;;;;;;7.45;5.03;;;9.40;99.90;;;;;;5082320;28;20506;-63
2022/04/11 08:47:58;;;;;;;7.60;4.97;;;9.70;99.90;;;;;;5073392;28;20044;-62
2022/04/11 08:50:25;;;;;;;7.25;5.18;;;9.90;99.90;;;;;;5082040;28;20048;-56
2022/04/11 08:52:54;;;;;;;9.75;5.22;;;10.10;99.90;;;;;;5076784;28;20054;-57
2022/04/11 08:55:21;;;;;;;8.20;4.78;;;10.40;99.90;;;;;;5078545;28;20055;-59
2022/04/11 08:57:48;;;;;;;6.60;4.18;;;10.90;99.90;;;;;;5072787;28;20047;-57
2022/04/11 09:00:16;;;;;;;7.80;4.50;;;11.30;99.90;;;;;;5092629;28;20051;-55
2022/04/11 09:02:44;;;;;;;7.22;4.30;;;11.40;99.90;;;;;;5078547;28;20044;-57
2022/04/11 09:05:11;;;;;;;6.65;4.43;;;11.70;99.90;;;;;;5078893;28;20043;-63
2022/04/11 09:07:52;;;;;;;9.13;4.97;;;12.10;99.90;;;;;;5076157;28;20040;-64
2022/04/11 09:10:32;;;;;;;7.05;3.83;;;12.60;99.90;;;;;;5095102;28;20056;-63
2022/04/11 09:13:01;;;;;;;6.05;3.53;;;13.20;99.90;;;;;;5083838;28;20044;-64
2022/04/11 09:15:28;;;;;;;6.90;3.75;;;13.60;99.90;;;;;;5072605;28;20052;-63
2022/04/11 09:17:56;;;;;;;6.15;3.85;;;14.00;99.90;;;;;;5082116;28;20087;-62
2022/04/11 09:20:26;;;;;;;12.93;9.15;;;14.30;90.90;;;;;;5077177;28;20078;-63
2022/04/11 09:22:52;;;;;;;7.50;3.80;;;14.70;82.60;;;;;;5102031;27;20044;-63
2022/04/11 09:25:23;;;;;;;16.50;13.27;;;15.00;73.80;;;;;;5077899;28;20048;-63
2022/04/11 09:28:03;;;;;;;13.32;9.98;;;15.40;66.40;;;;;;5082850;28;20101;-63
2022/04/11 09:30:32;;;;;;;10.45;6.15;;;15.50;55.90;;;;;;5077431;28;20186;-63
2022/04/11 09:33:02;;;;;;;7.82;4.55;;;15.70;61.80;;;;;;5075421;28;20052;-65
2022/04/11 09:35:33;;;;;;;12.48;8.40;;;15.70;60.40;;;;;;5059704;28;20062;-56
2022/04/11 09:38:16;;;;;;;15.98;13.38;;;16.10;56.00;;;;;;5104923;27;20132;-56
2022/04/11 09:40:45;;;;;;;7.65;3.72;;;16.10;51.90;;;;;;5073072;28;20758;-62
2022/04/11 09:43:13;;;;;;;8.68;6.13;;;16.40;54.20;;;;;;5062426;28;20503;-56
2022/04/11 09:45:49;;;;;;;7.72;5.70;;;16.50;53.60;;;;;;5044905;28;20476;-57
2022/04/11 09:48:24;;;;;;;9.48;7.43;;;16.50;51.80;;;;;;5078149;28;20043;-56
2022/04/11 09:50:52;;;;;;;6.30;3.40;;;16.70;49.50;;;;;;5060564;28;20360;-55
2022/04/11 09:53:22;;;;;;;12.75;7.93;;;17.10;49.50;;;;;;5080075;28;20048;-62
2022/04/11 09:55:54;;;;;;;6.53;4.10;;;16.60;47.70;;;;;;5076066;28;20609;-62
2022/04/11 09:58:22;;;;;;;6.63;3.30;;;17.10;50.20;;;;;;5080844;28;20302;-56
2022/04/11 10:00:50;;;;;;;7.53;3.72;;;17.30;50.40;;;;;;5073847;28;20487;-56
2022/04/11 10:03:17;;;;;;;6.35;3.30;;;17.70;49.30;;;;;;5078594;28;20056;-61
2022/04/11 10:05:43;;;;;;;5.60;3.72;;;17.90;48.80;;;;;;5073448;28;20478;-61
2022/04/11 10:08:12;;;;;;;8.85;4.90;;;18.00;47.50;;;;;;5080923;28;20043;-55
2022/04/11 10:10:39;;;;;;;6.95;4.00;;;17.90;48.00;;;;;;5078332;28;20051;-55
2022/04/11 10:13:07;;;;;;;8.23;4.78;;;18.00;47.60;;;;;;5075902;28;20055;-58
2022/04/11 10:15:36;;;;;;;8.27;4.60;;;17.90;46.10;;;;;;5045608;28;20574;-61
2022/04/11 10:18:03;;;;;;;32.78;28.75;;;18.10;46.00;;;;;;5105851;27;20249;-55
2022/04/11 10:20:40;;;;;;;38.25;33.83;;;17.80;45.80;;;;;;5074458;28;20119;-61
2022/04/11 10:23:28;;;;;;;9.45;5.70;;;17.80;44.80;;;;;;5072670;28;20135;-57
2022/04/11 10:25:58;;;;;;;11.77;8.38;;;18.10;45.50;;;;;;5078965;28;20152;-62
2022/04/11 10:28:26;;;;;;;9.40;6.78;;;18.10;45.60;;;;;;5079017;28;20052;-56
2022/04/11 10:31:13;;;;;;;14.77;11.98;;;18.20;44.40;;;;;;5079299;28;20128;-57
2022/04/11 10:33:40;;;;;;;17.10;12.40;;;18.40;43.20;;;;;;5075177;28;20129;-57
2022/04/11 10:36:30;;;;;;;37.10;33.05;;;18.50;43.70;;;;;;5075608;28;20048;-61
2022/04/11 10:39:15;;;;;;;10.30;8.05;;;18.40;41.70;;;;;;5080981;28;20044;-56
2022/04/11 10:41:56;;;;;;;11.88;10.10;;;18.90;43.60;;;;;;5078387;28;20047;-57
2022/04/11 10:44:36;;;;;;;11.63;8.13;;;19.10;41.40;;;;;;5079288;28;20059;-56
2022/04/11 10:47:09;;;;;;;8.48;5.97;;;19.10;41.10;;;;;;5081276;28;20052;-59
2022/04/11 10:49:50;;;;;;;6.72;5.35;;;19.10;41.40;;;;;;5084015;28;20052;-61
2022/04/11 10:52:29;;;;;;;;;;;18.90;40.60;;;;;;5079890;28;20127;-61
2022/04/11 10:54:57;;;;;;;8.73;5.40;;;19.00;40.90;;;;;;5093784;28;20406;-61
2022/04/11 10:57:36;;;;;;;9.50;6.40;;;19.30;42.10;;;;;;5066032;28;20086;-62
2022/04/11 11:00:07;;;;;;;9.45;6.82;;;19.40;41.10;;;;;;5083019;28;20048;-61
2022/04/11 11:02:49;;;;;;;10.68;6.80;;;19.40;40.80;;;;;;5084469;28;20456;-61
2022/04/11 11:05:38;;;;;;;8.48;6.93;;;19.40;40.40;;;;;;5079626;28;20040;-62
2022/04/11 11:08:14;;;;;;;8.68;6.80;;;19.30;39.20;;;;;;5078147;28;20048;-62
2022/04/11 11:11:02;;;;;;;8.60;6.85;;;19.30;39.80;;;;;;5083482;28;20495;-61
2022/04/11 11:13:41;;;;;;;10.65;7.43;;;19.10;37.20;;;;;;5077727;28;20127;-61
2022/04/11 11:16:11;;;;;;;206.90;34.50;;;19.50;40.10;;;;;;5077536;28;20051;-61
2022/04/11 11:18:46;;;;;;;12.80;7.35;;;19.00;38.80;;;;;;5079945;28;20048;-62
2022/04/11 11:21:19;;;;;;;16.85;7.75;;;19.20;40.10;;;;;;5080934;28;20047;-63
2022/04/11 11:24:03;;;;;;;9.63;7.10;;;19.10;40.50;;;;;;5081548;28;20112;-63
2022/04/11 11:26:45;;;;;;;17.60;7.35;;;19.40;39.70;;;;;;5082117;28;20044;-59
2022/04/11 11:29:22;;;;;;;10.32;6.97;;;19.80;40.60;;;;;;5042252;28;20440;-59
2022/04/11 11:31:55;;;;;;;11.10;6.95;;;19.80;39.40;;;;;;5075108;28;20127;-62
2022/04/11 11:34:23;;;;;;;11.60;8.63;;;20.10;40.10;;;;;;5078188;28;20426;-62
2022/04/11 11:36:51;;;;;;;10.68;8.32;;;20.30;40.50;;;;;;5060635;28;20040;-63
2022/04/11 11:39:23;;;;;;;9.52;7.68;;;20.40;39.60;;;;;;5061166;28;20124;-63
2022/04/11 11:41:51;;;;;;;18.10;15.45;;;20.40;38.70;;;;;;5079039;28;20070;-64
2022/04/11 11:44:19;;;;;;;29.10;26.00;;;20.50;38.40;;;;;;5080523;28;20072;-63
2022/04/11 11:46:55;;;;;;;10.73;9.05;;;20.20;38.90;;;;;;5076830;28;20047;-64
2022/04/11 11:49:23;;;;;;;49.30;13.57;;;20.30;38.70;;;;;;5077946;28;20101;-63
2022/04/11 11:51:50;;;;;;;12.10;7.53;;;20.50;38.20;;;;;;5078929;28;20048;-64
2022/04/11 11:54:40;;;;;;;9.15;7.95;;;20.40;37.80;;;;;;5061539;28;20055;-63
2022/04/11 11:57:15;;;;;;;11.32;8.30;;;20.00;35.70;;;;;;5076829;28;20046;-63
2022/04/11 12:00:02;;;;;;;9.13;7.63;;;19.70;37.50;;;;;;5080841;28;20036;-64
2022/04/11 12:05:26;;;;;;;9.18;7.30;;;20.40;38.40;;;;;;5084602;28;20058;-63
2022/04/11 12:08:15;;;;;;;10.80;7.95;;;20.50;37.60;;;;;;5049213;28;20048;-64
2022/04/11 12:10:41;;;;;;;12.38;7.32;;;20.30;37.70;;;;;;5085433;28;20151;-63
2022/04/11 12:13:07;;;;;;;8.88;6.00;;;20.20;38.30;;;;;;5083168;28;20183;-64
2022/04/11 12:15:35;;;;;;;8.57;6.55;;;20.20;37.10;;;;;;5085209;28;20143;-64
2022/04/11 12:18:07;;;;;;;15.10;12.55;;;20.30;37.10;;;;;;5082391;28;20040;-63
2022/04/11 12:20:34;;;;;;;23.75;21.23;;;20.40;36.70;;;;;;5065743;28;20044;-64
2022/04/11 12:23:11;;;;;;;10.10;7.85;;;20.00;37.10;;;;;;5082837;28;20044;-56
2022/04/11 12:25:49;;;;;;;36.80;32.97;;;20.20;36.20;;;;;;5083103;28;20418;-56
2022/04/11 12:28:19;;;;;;;23.27;20.70;;;19.90;36.70;;;;;;5081408;28;20507;-57
2022/04/11 12:31:02;;;;;;;15.85;10.63;;;20.00;36.90;;;;;;5082406;28;20392;-56
2022/04/11 12:33:35;;;;;;;8.73;7.88;;;20.20;36.30;;;;;;5082213;28;20080;-55
2022/04/11 12:36:07;;;;;;;9.32;7.93;;;20.00;36.20;;;;;;5083854;28;20245;-64
2022/04/11 12:38:44;;;;;;;8.50;7.10;;;20.10;36.10;;;;;;5083337;28;20411;-61
2022/04/11 12:41:47;;;;;;;16.98;15.18;;;20.00;36.20;;;;;;5080507;28;20128;-64
2022/04/11 12:44:17;;;;;;;43.78;39.08;;;20.20;35.10;;;;;;5022616;28;20045;-64
2022/04/11 12:47:02;;;;;;;13.55;11.85;;;20.10;36.10;;;;;;5072344;28;20048;-64
2022/04/11 12:49:50;;;;;;;16.90;15.05;;;20.10;36.50;;;;;;5083005;28;20388;-63
2022/04/11 12:52:24;;;;;;;27.02;24.13;;;20.70;37.10;;;;;;5079629;28;20036;-63
2022/04/11 12:54:59;;;;;;;12.75;10.50;;;20.70;36.50;;;;;;5082514;28;20040;-64
2022/04/11 12:57:34;;;;;;;10.60;7.30;;;21.00;37.60;;;;;;5083735;28;20394;-64
2022/04/11 13:00:18;;;;;;;7.90;6.63;;;20.90;37.10;;;;;;5081350;28;20054;-63
2022/04/11 13:02:45;;;;;;;9.73;7.82;;;20.60;33.70;;;;;;5079621;28;20048;-63
2022/04/11 13:05:15;;;;;;;12.00;10.50;;;20.80;35.80;;;;;;5081205;28;20181;-63